Time;durP1;ratioP1;P1;durP2;ratioP2;P2;SDS_P1;SDS_P2;PMS_P1;PMS_P2;Temp;Humidity;BMP_temperature;BMP_pressure;BME280_temperature;BME280_humidity;BME280_pressure;Samples;Min_cycle;Max_cycle;Signal;HPM_P1;HPM_P2
2022/08/13 00:02:30;;;;;;;21.45;14.00;;;16.60;99.90;;;;;;10405033;28;20037;-81
2022/08/13 00:07:31;;;;;;;20.25;14.07;;;16.60;99.90;;;;;;10409787;28;20507;-83
2022/08/13 00:17:56;;;;;;;1255.90;326.73;;;16.50;99.90;;;;;;10403516;28;20041;-81
2022/08/13 00:22:58;;;;;;;20.75;15.13;;;16.50;99.90;;;;;;10409988;28;20103;-82
2022/08/13 00:28:00;;;;;;;22.35;14.88;;;16.60;99.90;;;;;;10388354;28;20309;-81
2022/08/13 00:33:04;;;;;;;21.25;14.48;;;16.60;99.90;;;;;;10405290;28;20030;-81
2022/08/13 00:38:09;;;;;;;23.58;15.20;;;16.60;99.90;;;;;;10409653;28;20056;-82
2022/08/13 00:43:10;;;;;;;23.35;14.57;;;16.50;99.90;;;;;;10407800;28;20029;-82
2022/08/13 00:53:30;;;;;;;21.00;14.73;;;16.30;99.90;;;;;;10408961;28;20053;-82
2022/08/13 00:58:34;;;;;;;22.50;15.75;;;16.20;99.90;;;;;;10408174;28;20021;-81
2022/08/13 01:03:37;;;;;;;21.55;14.07;;;16.20;99.90;;;;;;10406514;28;20029;-81
2022/08/13 01:08:40;;;;;;;21.08;14.65;;;16.20;99.90;;;;;;10405344;28;20053;-83
2022/08/13 01:13:43;;;;;;;21.33;14.23;;;16.30;99.90;;;;;;10407369;28;20029;-81
2022/08/13 01:18:46;;;;;;;20.05;14.07;;;16.20;99.90;;;;;;10404289;28;20034;-82
2022/08/13 01:23:49;;;;;;;22.95;15.07;;;16.10;99.90;;;;;;10407281;28;20033;-81
2022/08/13 01:28:51;;;;;;;22.25;15.18;;;16.10;99.90;;;;;;10407607;28;20076;-81
2022/08/13 01:33:59;;;;;;;21.33;14.73;;;16.00;99.90;;;;;;10404121;28;20029;-82
2022/08/13 01:39:04;;;;;;;21.85;14.65;;;16.00;99.90;;;;;;10405125;28;20094;-83
2022/08/13 01:44:05;;;;;;;20.90;14.13;;;15.90;99.90;;;;;;10388533;28;20033;-81
2022/08/13 01:54:25;;;;;;;21.38;14.63;;;15.90;99.90;;;;;;10403313;28;20057;-81
2022/08/13 01:59:26;;;;;;;22.65;15.57;;;15.80;99.90;;;;;;10406059;28;20529;-82
2022/08/13 02:04:26;;;;;;;22.92;15.90;;;15.90;99.90;;;;;;10403048;28;20481;-82
2022/08/13 02:09:27;;;;;;;25.30;15.93;;;15.90;99.90;;;;;;10403330;28;20041;-82
2022/08/13 02:14:28;;;;;;;23.95;15.82;;;15.90;99.90;;;;;;10404290;28;20041;-82
2022/08/13 02:19:28;;;;;;;26.70;17.42;;;15.90;99.90;;;;;;10404062;28;20143;-81
2022/08/13 02:24:29;;;;;;;25.52;17.15;;;15.90;99.90;;;;;;10405644;28;20055;-81
2022/08/13 02:29:30;;;;;;;22.23;15.90;;;16.00;99.90;;;;;;10404279;28;20075;-81
2022/08/13 02:34:30;;;;;;;23.75;15.90;;;16.00;99.90;;;;;;10381210;28;20428;-82
2022/08/13 02:39:31;;;;;;;24.83;17.27;;;16.10;99.90;;;;;;10404936;28;20120;-82
2022/08/13 02:44:32;;;;;;;30.48;19.33;;;16.20;99.90;;;;;;10404043;28;20413;-82
2022/08/13 02:49:35;;;;;;;27.95;18.38;;;16.30;99.90;;;;;;10401791;28;20069;-82
2022/08/13 02:54:42;;;;;;;22.65;16.42;;;16.40;99.90;;;;;;10404421;28;20037;-81
2022/08/13 02:59:43;;;;;;;24.85;17.30;;;16.40;99.90;;;;;;10402301;28;20047;-81
2022/08/13 03:04:45;;;;;;;26.38;17.73;;;16.50;99.90;;;;;;10398740;28;20053;-81
2022/08/13 03:09:46;;;;;;;28.63;17.98;;;16.60;99.90;;;;;;10380647;28;20421;-81
2022/08/13 03:14:48;;;;;;;29.58;19.23;;;16.60;99.90;;;;;;10387846;28;20069;-83
2022/08/13 03:19:51;;;;;;;28.35;19.23;;;16.70;99.90;;;;;;10405644;28;20087;-82
2022/08/13 03:24:52;;;;;;;29.17;19.65;;;16.70;99.90;;;;;;10396004;28;20041;-82
2022/08/13 03:29:53;;;;;;;33.30;20.88;;;16.80;99.90;;;;;;10372137;28;20397;-82
2022/08/13 03:34:55;;;;;;;28.20;19.55;;;16.70;99.90;;;;;;10402022;28;20089;-82
2022/08/13 03:39:56;;;;;;;29.95;19.52;;;16.70;99.90;;;;;;10410584;28;20112;-82
2022/08/13 03:44:57;;;;;;;37.75;21.25;;;16.60;99.90;;;;;;10393807;28;20144;-82
2022/08/13 03:50:03;;;;;;;38.38;23.27;;;16.60;99.90;;;;;;10409554;28;20052;-83
2022/08/13 03:55:09;;;;;;;35.90;22.58;;;16.60;99.90;;;;;;10410145;28;20044;-82
2022/08/13 04:00:12;;;;;;;37.15;22.83;;;16.60;99.90;;;;;;10409917;28;20037;-82
2022/08/13 04:05:16;;;;;;;45.67;25.13;;;16.70;99.90;;;;;;10406061;28;20079;-82
2022/08/13 04:10:17;;;;;;;35.63;22.70;;;16.80;99.90;;;;;;10410912;28;20135;-83
2022/08/13 04:15:17;;;;;;;36.60;22.67;;;16.80;99.90;;;;;;10401397;28;20059;-83
2022/08/13 04:20:19;;;;;;;36.30;23.23;;;16.90;99.90;;;;;;10409764;28;20112;-82
2022/08/13 04:25:20;;;;;;;41.80;23.90;;;17.00;99.90;;;;;;10409467;28;20112;-81
2022/08/13 04:30:20;;;;;;;38.30;23.40;;;17.10;99.90;;;;;;10407541;28;20037;-82
2022/08/13 04:35:21;;;;;;;46.42;25.98;;;17.20;99.90;;;;;;10401501;28;20025;-81
2022/08/13 04:40:24;;;;;;;43.42;25.13;;;17.30;99.90;;;;;;10406437;28;20052;-82
2022/08/13 04:45:26;;;;;;;46.85;25.98;;;17.40;99.90;;;;;;10406078;28;20029;-81
2022/08/13 04:50:34;;;;;;;39.80;24.38;;;17.40;99.90;;;;;;10408166;28;20041;-82
2022/08/13 04:55:36;;;;;;;45.53;25.40;;;17.40;99.90;;;;;;10408355;28;20022;-80
2022/08/13 05:00:36;;;;;;;41.60;24.98;;;17.60;99.90;;;;;;10405557;28;20116;-80
2022/08/13 05:05:37;;;;;;;46.95;26.42;;;17.60;99.90;;;;;;10406797;28;20049;-80
2022/08/13 05:10:42;;;;;;;50.00;27.48;;;17.70;99.90;;;;;;10406730;28;20080;-80
2022/08/13 05:15:43;;;;;;;52.37;26.40;;;17.70;99.90;;;;;;10408124;28;20036;-80
2022/08/13 05:20:44;;;;;;;73.95;32.30;;;17.90;99.90;;;;;;10404296;28;20397;-80
2022/08/13 05:25:44;;;;;;;79.55;33.72;;;17.90;99.90;;;;;;10407700;28;20421;-80
2022/08/13 05:30:48;;;;;;;81.18;33.00;;;17.90;99.90;;;;;;10407816;28;20045;-80
2022/08/13 05:35:52;;;;;;;66.68;32.40;;;17.80;99.90;;;;;;10401415;28;20037;-80
2022/08/13 05:41:17;;;;;;;71.53;31.33;;;17.90;99.90;;;;;;10403256;28;20032;-80
2022/08/13 05:46:19;;;;;;;79.50;33.97;;;17.90;99.90;;;;;;10406683;28;20033;-81
2022/08/13 05:51:19;;;;;;;75.68;33.78;;;17.90;99.90;;;;;;10405851;28;20029;-81
2022/08/13 05:56:21;;;;;;;72.65;32.92;;;18.00;99.90;;;;;;10405824;28;20029;-82
2022/08/13 06:06:42;;;;;;;65.07;30.42;;;18.10;99.90;;;;;;10401492;28;20057;-82
2022/08/13 06:11:42;;;;;;;81.32;33.05;;;18.10;99.90;;;;;;10402259;28;20033;-82
2022/08/13 06:16:44;;;;;;;69.70;31.45;;;18.10;99.90;;;;;;10402592;28;20038;-81
2022/08/13 06:21:45;;;;;;;74.00;31.95;;;18.00;99.90;;;;;;10403672;28;20060;-83
2022/08/13 06:26:50;;;;;;;68.57;30.90;;;18.00;99.90;;;;;;10405302;28;20318;-82
2022/08/13 06:31:51;;;;;;;74.85;30.08;;;18.10;99.90;;;;;;10396187;28;20046;-82
2022/08/13 06:36:51;;;;;;;73.70;29.85;;;18.20;99.90;;;;;;10396516;28;20483;-81
2022/08/13 06:41:53;;;;;;;72.70;29.08;;;18.30;99.90;;;;;;10401426;28;20099;-80
2022/08/13 06:46:54;;;;;;;66.90;28.45;;;18.30;99.90;;;;;;10403470;28;20033;-80
2022/08/13 06:51:56;;;;;;;60.80;27.15;;;18.30;99.90;;;;;;10404801;28;20477;-79
2022/08/13 06:57:01;;;;;;;48.88;24.10;;;18.30;99.90;;;;;;10404606;28;20042;-80
2022/08/13 07:02:03;;;;;;;48.58;23.63;;;18.40;99.90;;;;;;10400681;28;20546;-79
2022/08/13 07:07:04;;;;;;;56.88;25.90;;;18.40;99.90;;;;;;10402881;28;20111;-80
2022/08/13 07:12:05;;;;;;;51.67;26.05;;;18.30;99.90;;;;;;10404166;28;20045;-80
2022/08/13 07:17:06;;;;;;;51.53;24.75;;;18.30;99.90;;;;;;10399048;28;20594;-82
2022/08/13 07:22:07;;;;;;;51.30;25.25;;;18.40;99.90;;;;;;10366347;28;20030;-82
2022/08/13 07:27:07;;;;;;;46.40;23.65;;;18.40;99.90;;;;;;10401042;28;20767;-82
2022/08/13 07:32:08;;;;;;;38.65;20.73;;;18.40;99.90;;;;;;10398563;28;20045;-81
2022/08/13 07:37:09;;;;;;;37.35;19.83;;;18.30;99.90;;;;;;10386479;28;20025;-81
2022/08/13 07:42:10;;;;;;;33.35;19.77;;;18.30;99.90;;;;;;10403249;28;20021;-83
2022/08/13 07:47:14;;;;;;;41.53;21.98;;;18.30;99.90;;;;;;10397742;28;20052;-82
2022/08/13 07:52:15;;;;;;;38.42;21.35;;;18.30;99.90;;;;;;10399803;28;20768;-81
2022/08/13 07:57:17;;;;;;;37.22;19.95;;;18.50;99.90;;;;;;10397920;28;20074;-83
2022/08/13 08:02:18;;;;;;;38.85;19.42;;;18.50;99.90;;;;;;10396482;28;20022;-82
2022/08/13 08:07:19;;;;;;;34.30;17.77;;;18.50;99.90;;;;;;10407434;28;20049;-81
2022/08/13 08:12:37;;;;;;;26.63;16.00;;;18.60;99.90;;;;;;10408092;28;20041;-82
2022/08/13 08:17:40;;;;;;;23.38;14.63;;;18.80;99.90;;;;;;10409324;28;20037;-83
2022/08/13 08:22:45;;;;;;;26.63;15.15;;;19.00;99.90;;;;;;10410051;28;20029;-82
2022/08/13 08:27:47;;;;;;;19.63;12.87;;;19.20;99.90;;;;;;10405725;28;20112;-81
2022/08/13 08:32:53;;;;;;;18.05;12.70;;;19.30;99.90;;;;;;10405381;28;20140;-84
2022/08/13 08:43:16;;;;;;;24.30;13.63;;;19.50;99.90;;;;;;10410051;28;20060;-85
2022/08/13 08:48:18;;;;;;;19.02;12.77;;;19.40;99.90;;;;;;10406497;28;20120;-86
2022/08/13 08:53:19;;;;;;;22.38;13.63;;;19.40;99.90;;;;;;10406982;28;20104;-86
2022/08/13 08:58:22;;;;;;;21.33;13.65;;;19.40;99.90;;;;;;10407012;28;20024;-85
2022/08/13 09:03:24;;;;;;;22.20;13.73;;;19.40;99.90;;;;;;10402029;28;20037;-85
2022/08/13 09:08:26;;;;;;;22.30;14.73;;;19.40;99.90;;;;;;10406867;28;20041;-86
2022/08/13 09:13:28;;;;;;;21.70;14.13;;;19.30;99.90;;;;;;10406765;28;20026;-86
2022/08/13 09:18:31;;;;;;;26.23;15.43;;;19.20;99.90;;;;;;10406900;28;20483;-87
2022/08/13 09:23:33;;;;;;;23.60;14.93;;;19.40;99.90;;;;;;10389989;28;20078;-87
2022/08/13 09:28:35;;;;;;;22.58;14.90;;;19.40;99.90;;;;;;10404458;28;20539;-88
2022/08/13 09:33:40;;;;;;;24.38;14.35;;;19.50;99.90;;;;;;10402545;28;20061;-86
2022/08/13 09:38:41;;;;;;;23.35;14.98;;;19.60;99.90;;;;;;10389661;28;20040;-86
2022/08/13 09:43:42;;;;;;;17.85;12.82;;;19.80;99.90;;;;;;10389869;28;20064;-86
2022/08/13 09:48:44;;;;;;;18.90;12.68;;;20.10;99.90;;;;;;10405370;28;20645;-86
2022/08/13 09:53:46;;;;;;;19.13;13.85;;;20.30;99.90;;;;;;10405297;28;20021;-87
2022/08/13 09:58:50;;;;;;;18.58;13.93;;;20.70;99.90;;;;;;10388662;28;20033;-88
2022/08/13 10:03:52;;;;;;;15.40;12.00;;;21.10;99.90;;;;;;10398361;28;20519;-89
2022/08/13 10:08:53;;;;;;;18.25;13.13;;;21.70;99.90;;;;;;10399011;28;20045;-87
2022/08/13 10:13:54;;;;;;;15.50;12.07;;;22.40;99.90;;;;;;10387749;28;20104;-85
2022/08/13 10:18:55;;;;;;;15.88;12.52;;;22.40;99.90;;;;;;10383142;28;20029;-85
2022/08/13 10:23:55;;;;;;;16.55;11.95;;;22.20;99.90;;;;;;10398144;28;20543;-85
2022/08/13 10:28:56;;;;;;;15.38;12.15;;;22.40;99.90;;;;;;10404550;28;20938;-84
2022/08/13 10:33:58;;;;;;;16.38;11.60;;;22.40;99.90;;;;;;10402029;28;20037;-84
2022/08/13 10:38:58;;;;;;;16.20;12.50;;;22.30;99.90;;;;;;10398026;28;20122;-83
2022/08/13 10:44:02;;;;;;;17.60;13.07;;;22.40;99.90;;;;;;10401032;28;20100;-82
2022/08/13 10:49:02;;;;;;;17.63;12.65;;;22.10;99.90;;;;;;10395871;28;20045;-83
2022/08/13 10:54:04;;;;;;;15.45;12.63;;;21.90;99.90;;;;;;10395554;28;20025;-85
2022/08/13 10:59:05;;;;;;;17.65;11.20;;;22.10;99.90;;;;;;10394858;28;20385;-84
2022/08/13 11:04:06;;;;;;;16.70;12.48;;;22.50;99.90;;;;;;10402269;28;20057;-85
2022/08/13 11:09:07;;;;;;;15.18;12.23;;;22.90;99.90;;;;;;10403607;28;20187;-86
2022/08/13 11:14:07;;;;;;;16.67;12.45;;;22.90;99.90;;;;;;10383983;28;20362;-85
2022/08/13 11:19:14;;;;;;;14.90;12.73;;;23.10;99.90;;;;;;10401539;28;20043;-86
2022/08/13 11:24:15;;;;;;;18.20;12.35;;;23.10;99.90;;;;;;10379463;28;20479;-87
2022/08/13 11:29:16;;;;;;;16.85;13.02;;;23.30;99.90;;;;;;10400773;28;20091;-83
2022/08/13 11:34:16;;;;;;;16.08;12.27;;;23.30;99.90;;;;;;10401876;28;20052;-84
2022/08/13 11:39:17;;;;;;;16.00;11.93;;;23.00;99.90;;;;;;10400750;28;20091;-83
2022/08/13 11:44:18;;;;;;;17.55;12.15;;;23.10;99.90;;;;;;10410063;28;20474;-83
2022/08/13 11:49:20;;;;;;;17.20;12.43;;;23.20;99.90;;;;;;10407145;28;20832;-82
2022/08/13 11:54:21;;;;;;;14.50;12.30;;;22.90;99.90;;;;;;10409347;28;20501;-83
2022/08/13 11:59:22;;;;;;;17.75;14.18;;;23.20;99.90;;;;;;10408252;28;20485;-84
2022/08/13 12:04:23;;;;;;;14.57;12.55;;;23.60;99.90;;;;;;10405889;28;20041;-82
2022/08/13 12:09:23;;;;;;;17.27;12.93;;;23.70;99.90;;;;;;10410471;28;20068;-83
2022/08/13 12:14:24;;;;;;;15.25;12.25;;;23.40;99.90;;;;;;10405905;28;20050;-81
2022/08/13 12:19:25;;;;;;;16.52;13.10;;;23.30;99.90;;;;;;10403735;28;20084;-83
2022/08/13 12:24:26;;;;;;;16.45;13.27;;;23.30;99.90;;;;;;10407128;28;20120;-84
2022/08/13 12:29:26;;;;;;;15.88;12.77;;;23.50;99.90;;;;;;10391804;28;20091;-86
2022/08/13 12:34:27;;;;;;;15.20;13.38;;;23.40;99.90;;;;;;10407553;28;20041;-85
2022/08/13 12:39:27;;;;;;;17.25;12.88;;;23.50;99.90;;;;;;10404750;28;20449;-87
2022/08/13 12:44:28;;;;;;;17.20;13.43;;;23.50;99.90;;;;;;10396774;28;20038;-87
2022/08/13 12:49:29;;;;;;;16.77;12.40;;;23.60;99.90;;;;;;10370799;28;20686;-83
2022/08/13 12:54:30;;;;;;;15.80;12.40;;;23.50;99.90;;;;;;10396669;28;20105;-83
2022/08/13 12:59:30;;;;;;;15.98;12.45;;;24.00;99.90;;;;;;10403878;28;20478;-85
2022/08/13 13:04:31;;;;;;;13.68;11.90;;;23.90;99.90;;;;;;10404850;28;20120;-84
2022/08/13 13:09:32;;;;;;;13.18;11.77;;;23.60;99.90;;;;;;10406957;28;20087;-86
2022/08/13 13:14:33;;;;;;;14.02;11.32;;;23.30;99.90;;;;;;10385666;28;20030;-84
2022/08/13 13:19:33;;;;;;;14.57;12.00;;;23.10;99.90;;;;;;10403982;28;20029;-80
2022/08/13 13:24:34;;;;;;;13.30;11.65;;;23.10;99.90;;;;;;10387648;28;20112;-84
2022/08/13 13:29:37;;;;;;;16.00;12.98;;;23.00;99.90;;;;;;10404505;28;20038;-83
2022/08/13 13:34:38;;;;;;;17.50;14.40;;;22.80;99.90;;;;;;10382646;28;20036;-82
2022/08/13 13:39:38;;;;;;;18.05;14.40;;;22.50;99.90;;;;;;10403891;28;20385;-82
2022/08/13 13:44:39;;;;;;;16.92;13.60;;;22.20;99.90;;;;;;10398040;28;20025;-83
2022/08/13 13:49:40;;;;;;;19.52;14.27;;;22.00;99.90;;;;;;10384830;28;20056;-81
2022/08/13 13:54:41;;;;;;;10.68;8.40;;;22.00;99.90;;;;;;10383158;28;20025;-82
2022/08/13 13:59:41;;;;;;;8.40;6.20;;;21.90;99.90;;;;;;10394748;28;20405;-82
2022/08/13 14:04:45;;;;;;;8.32;5.93;;;21.30;99.90;;;;;;10395853;28;20055;-83
2022/08/13 14:09:47;;;;;;;8.43;6.32;;;20.50;99.90;;;;;;10373976;28;20038;-83
2022/08/13 14:14:48;;;;;;;8.95;5.35;;;19.90;99.90;;;;;;10398059;28;20025;-81
2022/08/13 14:19:50;;;;;;;10.13;5.68;;;19.30;99.90;;;;;;10397001;28;20509;-83
2022/08/13 14:24:52;;;;;;;8.55;5.90;;;19.20;99.90;;;;;;10390934;28;20033;-83
2022/08/13 14:29:56;;;;;;;9.52;6.30;;;19.20;99.90;;;;;;10399803;28;20041;-82
2022/08/13 14:35:01;;;;;;;9.35;6.38;;;19.20;99.90;;;;;;10384022;28;20043;-82
2022/08/13 14:40:06;;;;;;;10.93;6.75;;;19.50;99.90;;;;;;10388279;28;20022;-81
2022/08/13 14:50:31;;;;;;;11.48;6.97;;;20.00;99.90;;;;;;10395196;28;20045;-82
2022/08/13 14:55:34;;;;;;;10.07;6.37;;;20.10;99.90;;;;;;10396948;28;20767;-82
2022/08/13 15:00:38;;;;;;;12.82;7.40;;;20.20;99.90;;;;;;10394261;28;20029;-80
2022/08/13 15:05:42;;;;;;;14.40;8.93;;;20.30;99.90;;;;;;10395545;28;20041;-80
2022/08/13 15:10:50;;;;;;;12.55;8.75;;;20.30;99.90;;;;;;10389542;28;20300;-82
2022/08/13 15:15:53;;;;;;;15.25;9.82;;;20.40;99.90;;;;;;10405327;28;20029;-81
2022/08/13 15:20:54;;;;;;;15.73;10.10;;;20.60;99.90;;;;;;10408967;28;20037;-81
2022/08/13 15:25:54;;;;;;;16.00;10.25;;;20.70;99.90;;;;;;10404388;28;20116;-82
2022/08/13 15:30:56;;;;;;;18.23;11.88;;;20.70;99.90;;;;;;10408584;28;20045;-81
2022/08/13 15:35:59;;;;;;;15.93;9.95;;;20.80;99.90;;;;;;10402282;28;20131;-82
2022/08/13 15:41:03;;;;;;;17.35;10.65;;;21.10;99.90;;;;;;10402579;28;20072;-82
2022/08/13 15:46:04;;;;;;;14.75;10.55;;;21.20;99.90;;;;;;10400202;28;20535;-81
2022/08/13 15:51:05;;;;;;;16.02;10.20;;;21.20;99.90;;;;;;10402443;28;20129;-82
2022/08/13 15:56:06;;;;;;;14.68;10.93;;;21.20;99.90;;;;;;10400078;28;20021;-85
2022/08/13 16:01:06;;;;;;;23.73;14.18;;;21.10;99.90;;;;;;10401228;28;20510;-81
2022/08/13 16:06:07;;;;;;;21.83;13.82;;;21.20;99.90;;;;;;10387053;28;20168;-82
2022/08/13 16:11:08;;;;;;;17.63;13.32;;;21.20;99.90;;;;;;10406637;28;20030;-81
2022/08/13 16:16:10;;;;;;;22.23;14.07;;;21.10;99.90;;;;;;10408324;28;20041;-81
2022/08/13 16:21:11;;;;;;;22.02;15.65;;;21.10;99.90;;;;;;10409076;28;20373;-82
2022/08/13 16:26:12;;;;;;;22.73;17.65;;;21.10;99.90;;;;;;10400866;28;20775;-81
2022/08/13 16:31:13;;;;;;;23.45;16.27;;;21.00;99.90;;;;;;10406973;28;20041;-82
2022/08/13 16:36:13;;;;;;;22.23;17.40;;;20.90;99.90;;;;;;10402173;28;20099;-80
2022/08/13 16:41:14;;;;;;;36.28;23.15;;;20.40;99.90;;;;;;10407210;28;20094;-80
2022/08/13 16:46:18;;;;;;;37.92;25.23;;;20.00;99.90;;;;;;10401117;28;20083;-80
2022/08/13 16:51:19;;;;;;;43.47;27.20;;;19.90;99.90;;;;;;10408685;28;20724;-80
2022/08/13 16:56:20;;;;;;;62.90;33.80;;;19.80;99.90;;;;;;10402070;28;20030;-80
2022/08/13 17:01:22;;;;;;;45.38;30.10;;;19.70;99.90;;;;;;10407551;28;20037;-80
2022/08/13 17:11:52;;;;;;;53.03;32.10;;;19.70;99.90;;;;;;10406155;28;20798;-80
2022/08/13 17:16:59;;;;;;;47.97;29.95;;;19.70;99.90;;;;;;10405720;28;20033;-80
2022/08/13 17:22:00;;;;;;;55.22;33.13;;;19.70;99.90;;;;;;10401173;28;20075;-81
2022/08/13 17:27:04;;;;;;;48.25;30.17;;;19.80;99.90;;;;;;10406343;28;20117;-81
2022/08/13 17:32:05;;;;;;;51.92;32.10;;;19.80;99.90;;;;;;10385110;28;20583;-84
2022/08/13 17:37:06;;;;;;;50.40;30.55;;;19.80;99.90;;;;;;10402691;28;20034;-83
2022/08/13 17:42:07;;;;;;;53.80;31.35;;;19.70;99.90;;;;;;10394442;28;20222;-83
2022/08/13 17:47:08;;;;;;;53.38;32.20;;;19.70;99.90;;;;;;10397047;28;20036;-83
2022/08/13 17:52:09;;;;;;;39.47;28.13;;;19.70;99.90;;;;;;10406466;28;20045;-83
2022/08/13 17:57:10;;;;;;;57.47;32.22;;;19.70;99.90;;;;;;10401039;28;20033;-83
2022/08/13 18:02:12;;;;;;;49.22;31.08;;;19.60;99.90;;;;;;10406934;28;20029;-85
2022/08/13 18:07:13;;;;;;;60.03;33.92;;;19.50;99.90;;;;;;10388041;28;20057;-83
2022/08/13 18:12:14;;;;;;;50.50;32.28;;;19.50;99.90;;;;;;10401761;28;20065;-83
2022/08/13 18:17:15;;;;;;;49.92;33.70;;;19.50;99.90;;;;;;10401743;28;20033;-82
2022/08/13 18:22:17;;;;;;;44.50;31.10;;;19.40;99.90;;;;;;10403413;28;20030;-83
2022/08/13 18:27:18;;;;;;;18.92;10.65;;;19.40;99.90;;;;;;10401279;28;20065;-84
2022/08/13 18:32:19;;;;;;;17.30;11.52;;;19.30;99.90;;;;;;10398049;28;20041;-82
2022/08/13 18:37:20;;;;;;;16.45;9.07;;;19.30;99.90;;;;;;10398460;28;20029;-83
2022/08/13 18:42:21;;;;;;;16.40;8.90;;;19.20;99.90;;;;;;10400609;28;20029;-81
2022/08/13 18:47:22;;;;;;;42.15;12.40;;;19.20;99.90;;;;;;10395358;28;20025;-83
2022/08/13 18:52:22;;;;;;;21.25;11.18;;;19.20;99.90;;;;;;10404844;28;20037;-84
2022/08/13 18:57:23;;;;;;;24.30;12.90;;;19.20;99.90;;;;;;10403769;28;20039;-82
2022/08/13 19:02:24;;;;;;;45.75;25.55;;;19.20;99.90;;;;;;10400747;28;20544;-81
2022/08/13 19:07:25;;;;;;;38.42;23.73;;;19.10;99.90;;;;;;10391895;28;20572;-84
2022/08/13 19:12:26;;;;;;;15.45;8.80;;;19.10;99.90;;;;;;10393743;28;20033;-84
2022/08/13 19:17:27;;;;;;;16.67;8.65;;;19.10;99.90;;;;;;10392066;28;20029;-84
2022/08/13 19:22:27;;;;;;;14.48;7.43;;;19.10;99.90;;;;;;10394859;28;20033;-82
2022/08/13 19:27:28;;;;;;;24.23;14.13;;;19.00;99.90;;;;;;10369786;28;20021;-85
2022/08/13 19:32:30;;;;;;;19.58;9.77;;;18.90;99.90;;;;;;10398599;28;20444;-84
2022/08/13 19:37:33;;;;;;;23.50;10.93;;;18.90;99.90;;;;;;10402239;28;20022;-83
2022/08/13 19:42:35;;;;;;;15.57;8.27;;;18.80;99.90;;;;;;10402683;28;20022;-83
2022/08/13 19:47:36;;;;;;;18.65;10.48;;;18.80;99.90;;;;;;10400774;28;20366;-83
2022/08/13 19:52:38;;;;;;;20.92;12.40;;;18.80;99.90;;;;;;10401273;28;20041;-82
2022/08/13 19:57:40;;;;;;;39.47;20.63;;;18.80;99.90;;;;;;10399496;28;20044;-84
2022/08/13 20:02:45;;;;;;;39.67;32.00;;;18.80;99.90;;;;;;10405598;28;20037;-83
2022/08/13 20:07:48;;;;;;;748.97;294.42;;;18.80;99.90;;;;;;10407020;28;20630;-83
2022/08/13 20:12:49;;;;;;;123.25;28.17;;;18.80;99.90;;;;;;10404567;28;20121;-82
2022/08/13 20:17:50;;;;;;;21.05;11.05;;;18.80;99.90;;;;;;10406832;28;20458;-83
2022/08/13 20:22:53;;;;;;;118.40;48.97;;;18.80;99.90;;;;;;10405503;28;20095;-81
2022/08/13 20:27:54;;;;;;;164.93;29.88;;;18.80;99.90;;;;;;10407499;28;20087;-81
2022/08/13 20:32:56;;;;;;;49.80;22.45;;;18.80;99.90;;;;;;10387310;28;20052;-83
2022/08/13 20:37:56;;;;;;;27.25;12.52;;;18.80;99.90;;;;;;10390668;28;20057;-81
2022/08/13 20:43:04;;;;;;;115.68;107.18;;;18.70;99.90;;;;;;10400312;28;20029;-81
2022/08/13 20:48:05;;;;;;;36.08;15.52;;;18.80;99.90;;;;;;10408228;28;20099;-81
2022/08/13 20:53:17;;;;;;;32.05;15.73;;;18.80;99.90;;;;;;10401480;28;20546;-82
2022/08/13 20:58:18;;;;;;;37.60;15.85;;;18.70;99.90;;;;;;10407411;28;20033;-82
2022/08/13 21:03:19;;;;;;;34.35;15.07;;;18.70;99.90;;;;;;10389236;28;20022;-82
2022/08/13 21:08:20;;;;;;;32.33;15.07;;;18.70;99.90;;;;;;10394030;28;20134;-82
2022/08/13 21:13:24;;;;;;;27.58;13.23;;;18.70;99.90;;;;;;10404026;28;20041;-82
2022/08/13 21:18:24;;;;;;;27.67;13.23;;;18.70;99.90;;;;;;10406756;28;20159;-83
2022/08/13 21:23:25;;;;;;;27.02;12.82;;;18.70;99.90;;;;;;10401861;28;20047;-83
2022/08/13 21:28:26;;;;;;;30.95;13.10;;;18.60;99.90;;;;;;10396688;28;20496;-82
2022/08/13 21:33:26;;;;;;;37.30;15.52;;;18.60;99.90;;;;;;10399126;28;20045;-82
2022/08/13 21:38:27;;;;;;;33.28;14.48;;;18.60;99.90;;;;;;10406878;28;20041;-82
2022/08/13 21:43:28;;;;;;;33.60;13.90;;;18.50;99.90;;;;;;10403347;28;20108;-82
2022/08/13 21:48:28;;;;;;;33.95;13.98;;;18.50;99.90;;;;;;10398320;28;20151;-82
2022/08/13 21:53:29;;;;;;;30.88;13.85;;;18.50;99.90;;;;;;10402378;28;20037;-81
2022/08/13 21:58:29;;;;;;;27.92;12.73;;;18.50;99.90;;;;;;10400319;28;20029;-81
2022/08/13 22:03:32;;;;;;;32.47;14.18;;;18.40;99.90;;;;;;10398976;28;20121;-81
2022/08/13 22:08:32;;;;;;;30.52;13.48;;;18.40;99.90;;;;;;10397133;28;20046;-82
2022/08/13 22:13:33;;;;;;;28.42;12.55;;;18.40;99.90;;;;;;10408209;28;20037;-82
2022/08/13 22:18:34;;;;;;;30.80;13.05;;;18.40;99.90;;;;;;10395989;28;20037;-81
2022/08/13 22:23:34;;;;;;;29.33;13.82;;;18.40;99.90;;;;;;10402105;28;20090;-82
2022/08/13 22:33:54;;;;;;;29.42;13.27;;;18.40;99.90;;;;;;10393855;28;20609;-82
2022/08/13 22:38:55;;;;;;;29.02;13.38;;;18.40;99.90;;;;;;10387896;28;20121;-81
2022/08/13 22:44:08;;;;;;;31.25;12.45;;;18.40;99.90;;;;;;10386331;28;20037;-83
2022/08/13 22:49:11;;;;;;;28.30;12.90;;;18.40;99.90;;;;;;10398609;28;20033;-83
2022/08/13 22:54:12;;;;;;;32.88;13.88;;;18.40;99.90;;;;;;10399638;28;20037;-83
2022/08/13 22:59:12;;;;;;;31.10;14.50;;;18.40;99.90;;;;;;10401083;28;20025;-83
2022/08/13 23:04:14;;;;;;;27.13;12.50;;;18.40;99.90;;;;;;10399709;28;20033;-83
2022/08/13 23:09:15;;;;;;;30.63;14.02;;;18.30;99.90;;;;;;10389991;28;20029;-83
2022/08/13 23:14:16;;;;;;;31.35;13.98;;;18.30;99.90;;;;;;10382968;28;20028;-82
2022/08/13 23:19:17;;;;;;;27.23;12.30;;;18.30;99.90;;;;;;10385245;28;20911;-83
2022/08/13 23:24:19;;;;;;;26.50;12.45;;;18.30;99.90;;;;;;10403189;28;20034;-84
2022/08/13 23:29:21;;;;;;;25.75;11.48;;;18.30;99.90;;;;;;10394309;28;20036;-84
2022/08/13 23:34:22;;;;;;;29.67;12.40;;;18.30;99.90;;;;;;10394008;28;20033;-83
2022/08/13 23:39:23;;;;;;;25.73;11.75;;;18.30;99.90;;;;;;10402306;28;20036;-84
2022/08/13 23:44:24;;;;;;;27.23;11.50;;;18.30;99.90;;;;;;10395952;28;20123;-83
2022/08/13 23:49:25;;;;;;;28.25;11.60;;;18.30;99.90;;;;;;10395449;28;20087;-82
2022/08/13 23:54:25;;;;;;;24.98;11.45;;;18.30;99.90;;;;;;10390228;28;20033;-83
2022/08/13 23:59:27;;;;;;;25.58;11.55;;;18.20;99.90;;;;;;10388611;28;20034;-84
